createdAt,value
2022-11-28T00:01:58.158Z,-1.5
2022-11-28T00:04:29.228Z,-1.5
2022-11-28T00:09:30.348Z,-1.6
2022-11-28T00:12:10.984Z,-1.6
2022-11-28T00:14:41.804Z,-1.6
2022-11-28T00:17:12.612Z,-1.6
2022-11-28T00:19:43.215Z,-1.5
2022-11-28T00:22:13.830Z,-1.6
2022-11-28T00:24:54.449Z,-1.5
2022-11-28T00:29:55.166Z,-1.5
2022-11-28T00:32:25.767Z,-1.6
2022-11-28T00:34:56.363Z,-1.6
2022-11-28T00:37:26.984Z,-1.6
2022-11-28T00:40:07.591Z,-1.5
2022-11-28T00:42:38.190Z,-1.6
2022-11-28T00:45:08.808Z,-1.6
2022-11-28T00:47:39.455Z,-1.5
2022-11-28T00:50:10.044Z,-1.5
2022-11-28T00:52:40.720Z,-1.5
2022-11-28T00:55:21.370Z,-1.6
2022-11-28T00:57:51.995Z,-1.6
2022-11-28T01:00:22.579Z,-1.5
2022-11-28T01:02:53.189Z,-1.5
2022-11-28T01:05:23.795Z,-1.5
2022-11-28T01:10:34.574Z,-1.5
2022-11-28T01:13:05.188Z,-1.4
2022-11-28T01:15:35.767Z,-1.4
2022-11-28T01:18:06.466Z,-1.4
2022-11-28T01:20:37.094Z,-1.4
2022-11-28T01:23:17.712Z,-1.4
2022-11-28T01:25:48.320Z,-1.4
2022-11-28T01:28:18.906Z,-1.5
2022-11-28T01:30:49.503Z,-1.5
2022-11-28T01:33:20.140Z,-1.5
2022-11-28T01:35:50.783Z,-1.5
2022-11-28T01:38:31.410Z,-1.5
2022-11-28T01:41:01.990Z,-1.4
2022-11-28T01:43:32.594Z,-1.4
2022-11-28T01:46:03.210Z,-1.4
2022-11-28T01:51:14.121Z,-1.4
2022-11-28T01:53:44.738Z,-1.4
2022-11-28T01:56:15.325Z,-1.4
2022-11-28T01:58:45.945Z,-1.3
2022-11-28T02:01:16.638Z,-1.3
2022-11-28T02:03:47.252Z,-1.3
2022-11-28T02:06:27.876Z,-1.3
2022-11-28T02:08:58.483Z,-1.3
2022-11-28T02:11:29.092Z,-1.3
2022-11-28T02:13:59.696Z,-1.3
2022-11-28T02:16:30.341Z,-1.3
2022-11-28T02:19:01.174Z,-1.3
2022-11-28T02:21:41.801Z,-1.3
2022-11-28T02:24:12.413Z,-1.3
2022-11-28T02:26:43.011Z,-1.3
2022-11-28T02:31:43.840Z,-1.2
2022-11-28T02:34:24.605Z,-1.3
2022-11-28T02:36:57.474Z,-1.3
2022-11-28T02:39:28.064Z,-1.3
2022-11-28T02:41:58.665Z,-1.3
2022-11-28T02:44:29.249Z,-1.4
2022-11-28T02:47:00.251Z,-1.4
2022-11-28T02:49:41.037Z,-1.4
2022-11-28T02:52:11.641Z,-1.5
2022-11-28T02:54:42.402Z,-1.4
2022-11-28T02:57:13.211Z,-1.4
2022-11-28T02:59:43.793Z,-1.5
2022-11-28T03:02:14.403Z,-1.4
2022-11-28T03:04:55.308Z,-1.4
2022-11-28T03:07:25.957Z,-1.4
2022-11-28T03:12:26.866Z,-1.5
2022-11-28T03:14:57.445Z,-1.5
2022-11-28T03:17:38.072Z,-1.4
2022-11-28T03:20:08.654Z,-1.4
2022-11-28T03:22:39.292Z,-1.3
2022-11-28T03:25:09.909Z,-1.3
2022-11-28T03:27:40.480Z,-1.4
2022-11-28T03:30:11.078Z,-1.4
2022-11-28T03:32:51.673Z,-1.5
2022-11-28T03:35:22.297Z,-1.4
2022-11-28T03:37:52.901Z,-1.5
2022-11-28T03:40:23.510Z,-1.4
2022-11-28T03:42:54.090Z,-1.4
2022-11-28T03:45:24.685Z,-1.4
2022-11-28T03:48:05.288Z,-1.4
2022-11-28T03:53:16.021Z,-1.3
2022-11-28T03:55:46.686Z,-1.3
2022-11-28T03:58:17.498Z,-1.4
2022-11-28T04:00:58.165Z,-1.3
2022-11-28T04:03:19.090Z,-1.4
2022-11-28T04:05:49.799Z,-1.4
2022-11-28T04:08:30.399Z,-1.3
2022-11-28T04:11:01.020Z,-1.3
2022-11-28T04:13:31.624Z,-1.3
2022-11-28T04:16:12.375Z,-1.3
2022-11-28T04:18:43.135Z,-1.3
2022-11-28T04:21:13.745Z,-1.3
2022-11-28T04:23:44.352Z,-1.3
2022-11-28T04:26:14.965Z,-1.3
2022-11-28T04:28:55.545Z,-1.3
2022-11-28T04:33:56.285Z,-1.3
2022-11-28T04:36:26.910Z,-1.3
2022-11-28T04:38:57.519Z,-1.3
2022-11-28T04:41:28.125Z,-1.3
2022-11-28T04:44:08.735Z,-1.2
2022-11-28T04:46:39.346Z,-1.2
2022-11-28T04:49:09.952Z,-1.2
2022-11-28T04:51:40.497Z,-1.2
2022-11-28T04:54:11.089Z,-1.2
2022-11-28T04:56:41.670Z,-1.2
2022-11-28T04:59:22.287Z,-1.1
2022-11-28T05:01:53.068Z,-1.1
2022-11-28T05:04:23.897Z,-1.2
2022-11-28T05:06:54.963Z,-1.1
2022-11-28T05:09:25.727Z,-1.2
2022-11-28T05:14:36.474Z,-1.2
2022-11-28T05:17:07.216Z,-1.2
2022-11-28T05:19:37.818Z,-1.2
2022-11-28T05:22:08.443Z,-1.2
2022-11-28T05:24:39.049Z,-1.1
2022-11-28T05:27:19.634Z,-1.1
2022-11-28T05:29:52.287Z,-1.2
2022-11-28T05:32:23.046Z,-1.2
2022-11-28T05:34:53.654Z,-1.1
2022-11-28T05:37:24.233Z,-1.1
2022-11-28T05:39:54.823Z,-1.2
2022-11-28T05:42:35.464Z,-1.2
2022-11-28T05:45:06.049Z,-1.2
2022-11-28T05:47:36.713Z,-1.2
2022-11-28T05:50:07.332Z,-1.2
2022-11-28T05:55:08.055Z,-1.1
2022-11-28T05:57:48.639Z,-1.1
2022-11-28T06:00:19.246Z,-1.2
2022-11-28T06:02:49.828Z,-1.1
2022-11-28T06:05:41.425Z,-1.1
2022-11-28T06:07:52.329Z,-1.1
2022-11-28T06:10:23.073Z,-1.1
2022-11-28T06:13:03.700Z,-1.1
2022-11-28T06:15:37.749Z,-1.1
2022-11-28T06:18:08.927Z,-1.1
2022-11-28T06:20:39.552Z,-1.2
2022-11-28T06:23:10.174Z,-1.2
2022-11-28T06:25:50.804Z,-1.2
2022-11-28T06:28:21.422Z,-1.1
2022-11-28T06:30:52.030Z,-1.2
2022-11-28T06:35:52.886Z,-1.1
2022-11-28T06:38:23.485Z,-1.1
2022-11-28T06:41:04.096Z,-1.3
2022-11-28T06:43:34.683Z,-1.2
2022-11-28T06:46:05.411Z,-1.2
2022-11-28T06:48:36.961Z,-1.2
2022-11-28T06:51:07.539Z,-1.1
2022-11-28T06:53:38.125Z,-1.1
2022-11-28T06:56:18.771Z,-1.0
2022-11-28T06:58:49.369Z,-1.0
2022-11-28T07:01:20.009Z,-1.1
2022-11-28T07:03:50.817Z,-1.1
2022-11-28T07:06:21.440Z,-1.1
2022-11-28T07:09:02.069Z,-1.1
2022-11-28T07:11:32.684Z,-1.1
2022-11-28T07:16:33.473Z,-1.1
2022-11-28T07:19:04.345Z,-1.0
2022-11-28T07:21:34.959Z,-1.0
2022-11-28T07:24:15.581Z,-1.0
2022-11-28T07:26:46.184Z,-1.0
2022-11-28T07:29:16.775Z,-1.0
2022-11-28T07:31:47.393Z,-1.0
2022-11-28T07:34:18.241Z,-1.0
2022-11-28T07:36:48.847Z,-1.0
2022-11-28T07:39:29.488Z,-0.9
2022-11-28T07:42:00.196Z,-0.9
2022-11-28T07:44:30.813Z,-0.9
2022-11-28T07:47:01.441Z,-0.9
2022-11-28T07:49:32.055Z,-0.9
2022-11-28T07:52:02.921Z,-0.8
2022-11-28T07:57:13.740Z,-0.8
2022-11-28T07:59:44.509Z,-0.7
2022-11-28T08:02:15.309Z,-0.8
2022-11-28T08:04:50.544Z,-0.7
2022-11-28T08:07:22.482Z,-0.7
2022-11-28T08:09:53.289Z,-0.7
2022-11-28T08:12:23.901Z,-0.7
2022-11-28T08:14:54.484Z,-0.6
2022-11-28T08:17:25.081Z,-0.5
2022-11-28T08:20:05.688Z,-0.6
2022-11-28T08:22:46.342Z,-0.7
2022-11-28T08:25:16.949Z,-0.7
2022-11-28T08:27:47.550Z,-0.7
2022-11-28T08:30:18.144Z,-0.6
2022-11-28T08:32:48.865Z,-0.6
2022-11-28T08:38:01.742Z,-0.5
2022-11-28T08:40:22.633Z,-0.5
2022-11-28T08:42:53.261Z,-0.5
2022-11-28T08:45:23.870Z,-0.5
2022-11-28T08:47:54.605Z,-0.5
2022-11-28T08:50:25.275Z,-0.4
2022-11-28T08:53:08.425Z,-0.4
2022-11-28T08:55:41.946Z,-0.2
2022-11-28T08:58:12.669Z,-0.3
2022-11-28T09:00:43.281Z,-0.3
2022-11-28T09:03:13.956Z,-0.2
2022-11-28T09:05:44.674Z,-0.2
2022-11-28T09:08:25.301Z,-0.2
2022-11-28T09:10:55.914Z,-0.2
2022-11-28T09:13:26.533Z,-0.1
2022-11-28T09:18:27.278Z,-0.2
2022-11-28T09:21:07.951Z,-0.1
2022-11-28T09:23:38.584Z,-0.2
2022-11-28T09:26:09.180Z,-0.1
2022-11-28T09:28:39.774Z,-0.1
2022-11-28T09:31:10.393Z,0.0
2022-11-28T09:33:41.226Z,0.1
2022-11-28T09:36:21.844Z,0.1
2022-11-28T09:38:52.465Z,0.3
2022-11-28T09:41:23.087Z,0.1
2022-11-28T09:43:55.135Z,0.1
2022-11-28T09:46:25.984Z,0.0
2022-11-28T09:48:56.831Z,0.1
2022-11-28T09:51:37.438Z,0.0
2022-11-28T09:54:08.056Z,0.2
2022-11-28T09:59:08.808Z,0.3
2022-11-28T10:01:39.443Z,0.3
2022-11-28T10:04:10.165Z,0.3
2022-11-28T10:06:51.029Z,0.4
2022-11-28T10:09:21.627Z,0.5
2022-11-28T10:11:52.721Z,0.7
2022-11-28T10:14:23.294Z,0.5
2022-11-28T10:16:53.960Z,0.5
2022-11-28T10:19:52.597Z,0.5
2022-11-28T10:22:04.155Z,0.6
2022-11-28T10:24:34.739Z,0.4
2022-11-28T10:27:05.347Z,0.5
2022-11-28T10:29:37.435Z,0.6
2022-11-28T10:32:08.067Z,0.5
2022-11-28T10:34:38.653Z,0.5
2022-11-28T10:39:49.352Z,0.7
2022-11-28T10:42:19.966Z,0.7
2022-11-28T10:44:50.572Z,0.8
2022-11-28T10:47:21.204Z,0.9
2022-11-28T10:50:11.837Z,0.9
2022-11-28T10:55:13.005Z,1.0
2022-11-28T10:57:43.598Z,1.1
2022-11-28T11:00:14.290Z,1.1
2022-11-28T11:02:44.968Z,1.1
2022-11-28T11:05:25.586Z,1.1
2022-11-28T11:07:56.226Z,1.2
2022-11-28T11:10:27.134Z,1.0
2022-11-28T11:12:57.753Z,1.0
2022-11-28T11:15:28.355Z,1.1
2022-11-28T11:20:39.268Z,1.2
2022-11-28T11:23:09.880Z,1.2
2022-11-28T11:25:37.000Z,1.2
2022-11-28T11:28:07.601Z,1.3
2022-11-28T11:30:38.209Z,1.2
2022-11-28T11:33:09.219Z,1.3
2022-11-28T11:35:49.848Z,1.4
2022-11-28T11:38:20.467Z,1.2
2022-11-28T11:40:47.752Z,1.4
2022-11-28T11:43:18.359Z,1.1
2022-11-28T11:45:52.466Z,1.2
2022-11-28T11:48:33.458Z,1.1
2022-11-28T11:51:04.051Z,1.2
2022-11-28T11:53:34.645Z,1.3
2022-11-28T11:56:05.260Z,1.3
2022-11-28T12:01:06.040Z,1.2
2022-11-28T12:03:46.732Z,1.3
2022-11-28T12:06:24.273Z,1.4
2022-11-28T12:08:54.856Z,1.3
2022-11-28T12:11:25.458Z,1.4
2022-11-28T12:13:47.516Z,1.3
2022-11-28T12:16:18.173Z,1.3
2022-11-28T12:18:59.014Z,1.3
2022-11-28T12:21:29.615Z,1.4
2022-11-28T12:24:10.301Z,1.4
2022-11-28T12:26:40.900Z,1.3
2022-11-28T12:29:11.488Z,1.2
2022-11-28T12:31:42.223Z,1.2
2022-11-28T12:34:22.888Z,1.3
2022-11-28T12:36:53.499Z,1.2
2022-11-28T12:41:54.248Z,1.2
2022-11-28T12:44:24.922Z,1.3
2022-11-28T12:47:05.555Z,1.2
2022-11-28T12:49:36.165Z,1.2
2022-11-28T12:52:07.448Z,1.3
2022-11-28T12:54:38.098Z,1.3
2022-11-28T12:57:08.745Z,1.4
2022-11-28T12:59:39.371Z,1.4
2022-11-28T13:02:17.023Z,1.4
2022-11-28T13:04:48.160Z,1.3
2022-11-28T13:07:18.827Z,1.3
2022-11-28T13:09:49.615Z,1.4
2022-11-28T13:12:20.271Z,1.3
2022-11-28T13:17:31.046Z,1.2
2022-11-28T13:22:31.800Z,1.1
2022-11-28T13:25:02.415Z,1.2
2022-11-28T13:27:33.041Z,1.1
2022-11-28T13:30:03.614Z,1.1
2022-11-28T13:32:44.255Z,1.1
2022-11-28T13:35:14.944Z,1.1
2022-11-28T13:40:22.700Z,1.2
2022-11-28T13:43:03.811Z,1.1
2022-11-28T13:45:16.967Z,1.1
2022-11-28T13:48:02.729Z,1.1
2022-11-28T13:50:30.202Z,1.1
2022-11-28T13:53:00.821Z,1.1
2022-11-28T13:55:33.151Z,1.1
2022-11-28T13:58:03.761Z,1.1
2022-11-28T14:03:14.631Z,1.1
2022-11-28T14:05:48.965Z,1.1
2022-11-28T14:08:19.623Z,1.1
2022-11-28T14:10:50.308Z,1.1
2022-11-28T14:13:20.926Z,1.1
2022-11-28T14:16:01.608Z,1.1
2022-11-28T14:18:55.430Z,1.0
2022-11-28T14:21:06.376Z,1.0
2022-11-28T14:23:37.004Z,1.0
2022-11-28T14:26:07.625Z,1.0
2022-11-28T14:28:38.240Z,1.0
2022-11-28T14:31:18.949Z,1.0
2022-11-28T14:33:40.747Z,0.9
2022-11-28T14:36:11.379Z,0.9
2022-11-28T14:38:52.020Z,1.0
2022-11-28T14:43:52.932Z,0.9
2022-11-28T14:46:33.608Z,0.9
2022-11-28T14:49:04.481Z,0.9
2022-11-28T14:51:35.140Z,0.9
2022-11-28T14:54:06.215Z,0.9
2022-11-28T14:56:36.935Z,0.9
2022-11-28T14:59:00.488Z,0.9
2022-11-28T15:01:41.141Z,0.9
2022-11-28T15:04:11.849Z,1.0
2022-11-28T15:06:42.462Z,0.9
2022-11-28T15:11:43.199Z,0.8
2022-11-28T15:14:13.845Z,0.7
2022-11-28T15:16:54.448Z,0.8
2022-11-28T15:19:25.091Z,0.7
2022-11-28T15:24:35.853Z,0.7
2022-11-28T15:27:06.574Z,0.7
2022-11-28T15:29:47.168Z,0.7
2022-11-28T15:32:17.771Z,0.7
2022-11-28T15:34:48.388Z,0.7
2022-11-28T15:37:13.102Z,0.7
2022-11-28T15:39:43.709Z,0.6
2022-11-28T15:42:14.324Z,0.6
2022-11-28T15:44:54.954Z,0.5
2022-11-28T15:47:25.623Z,0.5
2022-11-28T15:49:56.275Z,0.6
2022-11-28T15:52:26.884Z,0.5
2022-11-28T15:54:57.470Z,0.5
2022-11-28T15:57:28.065Z,0.5
2022-11-28T16:00:08.781Z,0.5
2022-11-28T16:05:09.619Z,0.4
2022-11-28T16:07:41.099Z,0.4
2022-11-28T16:15:22.539Z,0.4
2022-11-28T16:17:58.723Z,0.4
2022-11-28T16:20:29.314Z,0.3
2022-11-28T16:22:59.922Z,0.3
2022-11-28T16:25:30.547Z,0.3
2022-11-28T16:28:11.147Z,0.3
2022-11-28T16:30:41.725Z,0.3
2022-11-28T16:33:12.310Z,0.3
2022-11-28T16:35:42.904Z,0.3
2022-11-28T16:38:13.491Z,0.3
2022-11-28T16:40:44.139Z,0.3
2022-11-28T16:45:54.955Z,0.2
2022-11-28T16:48:25.678Z,0.2
2022-11-28T16:50:56.294Z,0.2
2022-11-28T16:53:26.885Z,0.3
2022-11-28T16:55:57.487Z,0.3
2022-11-28T16:58:38.087Z,0.2
2022-11-28T17:01:08.725Z,0.2
2022-11-28T17:03:39.636Z,0.2
2022-11-28T17:06:10.235Z,0.2
2022-11-28T17:08:40.826Z,0.2
2022-11-28T17:11:11.444Z,0.2
2022-11-28T17:13:52.421Z,0.2
2022-11-28T17:16:24.546Z,0.2
2022-11-28T17:18:55.289Z,0.1
2022-11-28T17:21:25.881Z,0.1
2022-11-28T17:26:26.654Z,0.1
2022-11-28T17:29:07.257Z,0.1
2022-11-28T17:31:37.849Z,0.1
2022-11-28T17:34:08.629Z,0.1
2022-11-28T17:36:39.249Z,0.1
2022-11-28T17:39:09.841Z,0.1
2022-11-28T17:41:50.457Z,0.1
2022-11-28T17:44:21.042Z,0.1
2022-11-28T17:46:52.290Z,0.1
2022-11-28T17:49:22.885Z,0.1
2022-11-28T17:51:56.727Z,0.1
2022-11-28T17:54:27.325Z,0.0
2022-11-28T17:57:07.938Z,0.1
2022-11-28T17:59:38.530Z,0.0
2022-11-28T18:02:09.191Z,0.1
2022-11-28T18:07:10.057Z,0.0
2022-11-28T18:09:41.009Z,0.0
2022-11-28T18:12:21.699Z,0.1
2022-11-28T18:14:52.296Z,0.0
2022-11-28T18:17:22.889Z,0.0
2022-11-28T18:19:57.421Z,0.0
2022-11-28T18:22:28.283Z,0.0
2022-11-28T18:24:58.925Z,0.0
2022-11-28T18:27:39.549Z,0.0
2022-11-28T18:30:10.173Z,-0.1
2022-11-28T18:32:40.761Z,-0.1
2022-11-28T18:35:11.370Z,-0.1
2022-11-28T18:37:41.981Z,-0.1
2022-11-28T18:40:22.608Z,0.0
2022-11-28T18:42:53.172Z,-0.1
2022-11-28T18:47:58.723Z,-0.1
2022-11-28T18:50:20.546Z,-0.1
2022-11-28T18:52:51.136Z,0.0
2022-11-28T18:55:31.725Z,-0.1
2022-11-28T18:58:02.347Z,0.0
2022-11-28T19:00:32.960Z,0.0
2022-11-28T19:03:03.657Z,0.0
2022-11-28T19:05:39.046Z,0.0
2022-11-28T19:08:09.832Z,0.0
2022-11-28T19:13:20.604Z,0.0
2022-11-28T19:15:51.217Z,-0.1
2022-11-28T19:18:21.867Z,-0.1
2022-11-28T19:20:52.495Z,-0.1
2022-11-28T19:28:33.404Z,0.0
2022-11-28T19:31:04.223Z,-0.1
2022-11-28T19:33:34.938Z,-0.1
2022-11-28T19:36:11.185Z,-0.1
2022-11-28T19:38:41.816Z,-0.1
2022-11-28T19:41:22.435Z,-0.1
2022-11-28T19:43:53.028Z,-0.1
2022-11-28T19:46:23.630Z,-0.1
2022-11-28T19:48:46.476Z,-0.1
2022-11-28T19:51:27.104Z,-0.1
2022-11-28T19:54:07.743Z,-0.1
2022-11-28T19:56:38.523Z,-0.1
2022-11-28T19:59:09.125Z,-0.1
2022-11-28T20:01:39.781Z,-0.1
2022-11-28T20:04:10.759Z,-0.1
2022-11-28T20:09:21.498Z,-0.1
2022-11-28T20:11:52.600Z,-0.1
2022-11-28T20:14:23.211Z,-0.1
2022-11-28T20:16:53.870Z,-0.1
2022-11-28T20:19:24.463Z,-0.1
2022-11-28T20:21:55.420Z,-0.1
2022-11-28T20:24:36.049Z,-0.1
2022-11-28T20:27:06.644Z,-0.1
2022-11-28T20:29:37.239Z,-0.1
2022-11-28T20:32:07.887Z,-0.1
2022-11-28T20:34:38.523Z,-0.1
2022-11-28T20:37:09.226Z,-0.1
2022-11-28T20:39:49.831Z,-0.1
2022-11-28T20:42:20.410Z,-0.1
2022-11-28T20:44:52.924Z,-0.1
2022-11-28T20:49:53.676Z,-0.1
2022-11-28T20:52:34.295Z,0.0
2022-11-28T20:55:04.886Z,0.0
2022-11-28T20:57:35.504Z,-0.1
2022-11-28T21:00:06.110Z,0.0
2022-11-28T21:02:37.249Z,-0.1
2022-11-28T21:05:07.886Z,-0.1
2022-11-28T21:07:48.496Z,-0.1
2022-11-28T21:10:19.187Z,-0.1
2022-11-28T21:12:49.790Z,-0.1
2022-11-28T21:15:20.395Z,-0.1
2022-11-28T21:17:50.963Z,-0.1
2022-11-28T21:20:21.569Z,0.0
2022-11-28T21:23:02.185Z,0.0
2022-11-28T21:25:32.779Z,0.0
2022-11-28T21:30:33.541Z,0.0
2022-11-28T21:33:04.137Z,0.0
2022-11-28T21:35:34.745Z,0.0
2022-11-28T21:38:15.360Z,0.0
2022-11-28T21:40:45.972Z,0.0
2022-11-28T21:43:16.543Z,0.0
2022-11-28T21:45:47.183Z,-0.1
2022-11-28T21:48:17.937Z,-0.1
2022-11-28T21:53:28.691Z,-0.2
2022-11-28T21:55:59.316Z,-0.2
2022-11-28T21:58:29.900Z,-0.3
2022-11-28T22:01:00.553Z,-0.2
2022-11-28T22:03:31.332Z,-0.2
2022-11-28T22:06:11.986Z,-0.2
2022-11-28T22:11:12.774Z,-0.1
2022-11-28T22:13:43.388Z,-0.1
2022-11-28T22:16:14.055Z,-0.1
2022-11-28T22:18:44.812Z,-0.1
2022-11-28T22:21:51.388Z,-0.1
2022-11-28T22:23:54.676Z,-0.1
2022-11-28T22:26:25.347Z,-0.1
2022-11-28T22:28:56.003Z,-0.1
2022-11-28T22:31:26.634Z,-0.1
2022-11-28T22:33:57.428Z,-0.1
2022-11-28T22:36:38.043Z,-0.1
2022-11-28T22:39:08.657Z,-0.1
2022-11-28T22:41:39.258Z,-0.1
2022-11-28T22:44:09.845Z,-0.1
2022-11-28T22:46:50.461Z,-0.1
2022-11-28T22:52:01.238Z,-0.1
2022-11-28T22:54:31.870Z,-0.1
2022-11-28T22:57:02.853Z,-0.1
2022-11-28T22:59:33.436Z,0.0
2022-11-28T23:02:04.113Z,0.0
2022-11-28T23:04:45.201Z,0.0
2022-11-28T23:07:15.970Z,0.0
2022-11-28T23:09:46.736Z,0.0
2022-11-28T23:12:17.359Z,0.0
2022-11-28T23:14:48.021Z,0.0
2022-11-28T23:17:18.618Z,0.0
2022-11-28T23:19:59.212Z,0.0
2022-11-28T23:22:29.797Z,0.0
2022-11-28T23:25:00.396Z,0.0
2022-11-28T23:27:31.006Z,0.0
2022-11-28T23:32:31.766Z,0.0
2022-11-28T23:35:12.382Z,0.1
2022-11-28T23:37:43.034Z,0.0
2022-11-28T23:40:13.649Z,0.0
2022-11-28T23:42:44.257Z,0.1
2022-11-28T23:45:14.875Z,0.0
2022-11-28T23:47:45.554Z,0.1
2022-11-28T23:50:26.173Z,0.1
2022-11-28T23:52:56.782Z,0.1
2022-11-28T23:55:27.368Z,0.1
2022-11-28T23:57:57.947Z,0.1
